• Join FlightAware (Why Join?)
  • Login
  • US Flag 
02:39AM EDT


 

Airport Tracker/Info


-or-


 

Live Flight TrackerFlight Track Log ✈ GPD27 ✈ 16-Jun-2013 ✈ KRME - KHPN

Flight Track Log - Related Links

Times and Time Zones

All times are in EDT time to prevent confusion due to time zone crossing. See the GPD27 flight status page for this flight to view local times or setup timezone preferences in your user account.

Time Position Orientation Groundspeed Altitude Reporting Facility
EDT Latitude Longitude Course Direction KTS MPH feet Rate Location/Type
06:34PM 43.2611 -75.4511 228° Southwest 107 123 2,500  Level Boston Center
06:34PM 43.2503 -75.4675 228° Southwest 142 163 2,900 1,260 Climbing Boston Center
06:35PM 43.2117 -75.4231 140° Southeast 214 246 4,200 1,260 Climbing Boston Center
06:36PM 43.1856 -75.3903 138° Southeast 198 228 4,900 1,080 Climbing Boston Center
06:37PM 43.1453 -75.3314 133° Southeast 208 239 5,900 960 Climbing Boston Center
06:38PM 43.0967 -75.2781 146° Southeast 214 246 6,900 960 Climbing Boston Center
06:39PM 43.0436 -75.2328 148° Southeast 225 259 7,900 960 Climbing Boston Center
06:40PM 42.9903 -75.1878 148° Southeast 230 265 8,900 960 Climbing Boston Center
06:41PM 42.9353 -75.1400 148° Southeast 230 265 9,900 900 Climbing Boston Center
06:42PM 42.8800 -75.0950 149° Southeast 230 265 10,800 900 Climbing Boston Center
06:43PM 42.8228 -75.0472 149° Southeast 235 270 11,800 960 Climbing Boston Center
06:44PM 42.7636 -74.9967 148° Southeast 240 276 12,800 960 Climbing Boston Center
06:45PM 42.7061 -74.9492 149° Southeast 245 282 13,800 960 Climbing Boston Center
06:46PM 42.6467 -74.9017 150° Southeast 245 282 14,800 600 Climbing Boston Center
06:47PM 42.5875 -74.8483 146° Southeast 252 290 15,000 60 Climbing Boston Center
06:48PM 42.5197 -74.7950 150° Southeast 258 297 15,000  Level Boston Center
06:49PM 42.4542 -74.7364 147° Southeast 277 319 15,000  Level Boston Center
06:50PM 42.3867 -74.6833 150° Southeast 282 325 15,000  Level Boston Center
06:51PM 42.3211 -74.6247 147° Southeast 282 325 15,000  Level Boston Center
06:52PM 42.2531 -74.5747 151° Southeast 282 325 15,000  Level Boston Center
06:53PM 42.1919 -74.5108 142° Southeast 287 330 15,000  Level Boston Center
06:54PM 42.1644 -74.4175 112° Southeast 282 325 15,000 -60 Level Boston Center
06:55PM 42.1222 -74.3128 119° Southeast 288 331 14,900 -480 Descending Boston Center
06:56PM 42.0842 -74.2247 120° Southeast 293 337 14,100 -960 Descending Boston Center
06:57PM 42.0125 -74.1417 139° Southeast 301 346 13,000 -1,020 Descending Boston Center
06:58PM 41.9425 -74.0814 147° Southeast 301 346 12,100 -960 Descending Boston Center
06:59PM 41.8808 -74.0294 148° Southeast 301 346 11,100 -1,080 Descending Boston Center
07:00PM 41.8044 -73.9633 147° Southeast 295 339 10,000 -1,020 Descending Boston Center
07:01PM 41.7447 -73.9092 146° Southeast 295 339 9,100 -960 Descending Boston Center
07:02PM 41.6683 -73.8464 148° Southeast 295 339 8,100 -960 Descending Boston Center
07:02PM 41.6167 -73.8000 146° Southeast 287 330 7,600 -720 Descending New York TRACON
07:03PM 41.5500 -73.7500 151° Southeast 280 322 7,000 -720 Descending New York TRACON
07:04PM 41.5000 -73.7000 143° Southeast 275 316 6,200 -900 Descending New York TRACON
07:05PM 41.4333 -73.6500 151° Southeast 270 311 5,300 -960 Descending New York TRACON
07:06PM 41.3667 -73.6167 159° South 252 290 4,400 -960 Descending New York TRACON
07:07PM 41.3000 -73.6000 169° South 233 268 3,300 -720 Descending New York TRACON
07:08PM 41.2333 -73.5833 169° South 206 237 3,000 -180 Descending New York TRACON
07:09PM 41.2000 -73.5667 159° South 188 216 3,000 -480 Level New York TRACON
07:10PM 41.1333 -73.5500 169° South 203 234 2,100 -540 Descending New York TRACON
07:11PM 41.0833 -73.5500 180° South 186 214 2,000 -60 Descending New York TRACON
07:12PM 41.0333 -73.5500 180° South 157 181 2,000  Level New York TRACON
07:13PM 41.0167 -73.5667 217° Southwest 142 163 2,000  Level New York TRACON
07:14PM 41.0000 -73.6167 246° West 137 158 2,000  Level New York TRACON
07:15PM 41.0167 -73.6667 294° West 154 177 2,000 -420 Level New York TRACON
07:16PM 41.0333 -73.6833 323° Northwest 97 112 1,200 -900 Descending New York TRACON
07:18PM 41.0667 -73.7000 252° West  Level FlightAware Approximate
07:25PM 41.0669 -73.7076 252° West  Level Estimated
07:26PM 41.0667 -73.7000 252° West  Level FlightAware Approximate